Time;durP1;ratioP1;P1;durP2;ratioP2;P2;SDS_P1;SDS_P2;PMS_P1;PMS_P2;Temp;Humidity;BMP_temperature;BMP_pressure;BME280_temperature;BME280_humidity;BME280_pressure;Samples;Min_cycle;Max_cycle;Signal;HPM_P1;HPM_P2
2022/05/12 00:01:31;;;;;;;8.37;7.40;;;15.00;99.90;;;;;;2613525;54;20189;-85
2022/05/12 00:03:56;;;;;;;8.80;7.83;;;15.00;99.90;;;;;;2613811;54;20443;-76
2022/05/12 00:06:22;;;;;;;9.80;7.73;;;15.00;99.90;;;;;;2611394;54;20238;-76
2022/05/12 00:08:48;;;;;;;12.07;7.53;;;15.10;99.90;;;;;;2611636;39;20655;-76
2022/05/12 00:11:14;;;;;;;12.07;8.60;;;15.10;99.90;;;;;;2611730;54;20150;-76
2022/05/12 00:13:40;;;;;;;16.23;8.33;;;15.00;99.90;;;;;;2611508;54;20226;-76
2022/05/12 00:16:06;;;;;;;15.57;8.23;;;15.00;99.90;;;;;;2610523;54;21089;-75
2022/05/12 00:18:33;;;;;;;10.60;8.17;;;15.00;99.90;;;;;;2611080;54;20143;-84
2022/05/12 00:20:58;;;;;;;9.70;7.70;;;15.10;99.90;;;;;;2616863;54;20405;-84
2022/05/12 00:23:28;;;;;;;9.33;7.50;;;15.00;99.90;;;;;;2619582;54;20439;-86
2022/05/12 00:25:56;;;;;;;9.17;6.57;;;14.90;99.90;;;;;;2624325;39;20582;-89
2022/05/12 00:28:25;;;;;;;10.37;5.87;;;14.80;99.90;;;;;;2621810;54;20375;-87
2022/05/12 00:30:54;;;;;;;8.10;6.30;;;14.70;99.90;;;;;;2621556;54;20419;-86
2022/05/12 00:33:26;;;;;;;7.27;6.53;;;14.60;99.90;;;;;;2626155;47;20388;-89
2022/05/12 00:35:53;;;;;;;12.70;6.70;;;14.60;99.90;;;;;;2623113;54;20415;-88
2022/05/12 00:38:18;;;;;;;11.33;6.53;;;14.50;99.90;;;;;;2622893;54;20399;-86
2022/05/12 00:45:03;;;;;;;10.23;6.10;;;14.40;99.90;;;;;;2615877;46;20398;-79
2022/05/12 00:51:13;;;;;;;13.33;7.03;;;14.30;99.90;;;;;;2616687;54;20419;-77
2022/05/12 01:04:08;;;;;;;7.40;6.27;;;14.20;99.90;;;;;;2616962;54;20429;-79
2022/05/12 01:10:14;;;;;;;8.43;6.00;;;13.90;99.90;;;;;;2616621;54;20259;-78
2022/05/12 01:16:45;;;;;;;11.90;6.60;;;13.70;99.90;;;;;;2615465;54;20670;-76
2022/05/12 01:29:43;;;;;;;8.50;5.33;;;13.30;99.90;;;;;;2614875;39;20977;-76
2022/05/12 01:39:19;;;;;;;8.20;4.80;;;13.10;99.90;;;;;;2614320;54;20933;-76
2022/05/12 01:41:44;;;;;;;4.73;4.37;;;13.00;99.90;;;;;;2615227;47;20427;-78
2022/05/12 01:44:11;;;;;;;5.60;4.67;;;12.90;99.90;;;;;;2616200;54;20255;-75
2022/05/12 01:49:58;;;;;;;5.77;4.93;;;12.90;99.90;;;;;;2615522;54;21044;-76
2022/05/12 02:09:55;;;;;;;7.87;4.30;;;12.60;99.90;;;;;;2614604;47;20400;-76
2022/05/12 02:15:43;;;;;;;5.37;4.90;;;12.40;99.90;;;;;;2615435;54;20139;-76
2022/05/12 02:21:31;;;;;;;5.30;4.40;;;12.30;99.90;;;;;;2614838;54;20423;-75
2022/05/12 02:27:20;;;;;;;8.93;4.17;;;12.20;99.90;;;;;;2615227;54;20408;-75
2022/05/12 02:43:53;;;;;;;8.13;3.83;;;12.10;99.90;;;;;;2615808;54;20535;-74
2022/05/12 02:46:22;;;;;;;6.50;4.27;;;12.10;99.90;;;;;;2616558;54;20414;-74
2022/05/12 02:52:10;;;;;;;6.90;5.67;;;12.00;99.90;;;;;;2615336;54;21020;-74
2022/05/12 02:57:58;;;;;;;7.67;4.37;;;11.90;99.90;;;;;;2615418;54;20162;-74
2022/05/12 03:03:46;;;;;;;5.63;4.10;;;11.90;99.90;;;;;;2615208;47;20142;-74
2022/05/12 03:09:33;;;;;;;4.77;4.30;;;11.60;99.90;;;;;;2615746;50;20131;-74
2022/05/12 03:15:22;;;;;;;7.30;5.20;;;11.60;99.90;;;;;;2614468;47;20230;-75
2022/05/12 03:21:10;;;;;;;7.40;4.63;;;11.60;99.90;;;;;;2614905;54;20945;-74
2022/05/12 03:26:57;;;;;;;7.33;4.80;;;11.60;99.90;;;;;;2615372;54;20185;-74
2022/05/12 03:32:46;;;;;;;4.90;4.50;;;11.50;99.90;;;;;;2616188;46;20170;-73
2022/05/12 03:53:54;;;;;;;6.50;4.10;;;11.40;99.90;;;;;;2613969;54;21086;-74
2022/05/12 03:59:42;;;;;;;7.53;4.90;;;11.20;99.90;;;;;;2613702;54;20802;-74
2022/05/12 04:19:37;;;;;;;5.10;4.60;;;11.30;99.90;;;;;;2615228;47;20384;-74
2022/05/12 04:29:05;;;;;;;10.37;5.47;;;11.40;99.90;;;;;;2613577;54;20502;-74
2022/05/12 04:35:14;;;;;;;9.07;6.90;;;11.40;99.90;;;;;;2614404;54;20437;-74
2022/05/12 04:41:20;;;;;;;9.57;6.20;;;11.60;99.90;;;;;;2614653;54;20456;-75
2022/05/12 04:51:09;;;;;;;12.83;5.77;;;12.00;99.90;;;;;;2613455;54;20375;-74
2022/05/12 04:57:15;;;;;;;8.67;6.97;;;12.20;99.90;;;;;;2614939;54;20494;-74
2022/05/12 05:03:23;;;;;;;9.17;6.33;;;12.20;99.90;;;;;;2614547;54;20145;-74
2022/05/12 05:09:29;;;;;;;10.53;8.40;;;12.30;99.90;;;;;;2615890;54;20399;-75
2022/05/12 05:15:36;;;;;;;9.33;7.33;;;12.80;99.90;;;;;;2613086;54;20233;-74
2022/05/12 05:21:43;;;;;;;10.27;7.50;;;13.20;99.90;;;;;;2614983;54;20446;-74
2022/05/12 05:27:51;;;;;;;8.67;7.50;;;13.70;99.90;;;;;;2617335;54;20157;-75
2022/05/12 05:33:58;;;;;;;10.00;6.97;;;14.30;99.90;;;;;;2616919;54;20491;-75
2022/05/12 05:40:05;;;;;;;11.03;7.17;;;14.80;99.90;;;;;;2616207;54;20639;-76
2022/05/12 05:46:12;;;;;;;13.33;7.00;;;14.80;99.90;;;;;;2616351;54;20491;-74
2022/05/12 05:55:22;;;;;;;6.63;5.77;;;14.30;99.90;;;;;;2615813;54;20434;-75
2022/05/12 06:01:11;;;;;;;9.30;6.13;;;14.00;99.90;;;;;;2615701;54;20234;-74
2022/05/12 06:06:59;;;;;;;7.57;5.40;;;14.90;99.90;;;;;;2616170;47;20410;-74
2022/05/12 06:12:49;;;;;;;7.43;5.80;;;15.70;99.90;;;;;;2615545;47;20158;-75
2022/05/12 06:18:37;;;;;;;5.57;5.00;;;15.60;99.90;;;;;;2615789;54;20396;-75
2022/05/12 06:24:25;;;;;;;4.63;4.20;;;15.80;99.90;;;;;;2616481;39;20806;-75
2022/05/12 06:30:14;;;;;;;7.07;4.83;;;15.70;99.90;;;;;;2616917;46;20155;-75
2022/05/12 06:36:04;;;;;;;5.70;3.80;;;16.50;99.90;;;;;;2616919;39;21052;-74
2022/05/12 06:41:53;;;;;;;4.93;3.03;;;16.40;99.90;;;;;;2616213;54;20396;-74
2022/05/12 06:47:48;;;;;;;4.80;2.73;;;16.10;99.90;;;;;;2616970;39;20771;-75
2022/05/12 06:57:47;;;;;;;7.37;4.47;;;16.40;99.90;;;;;;2615122;54;20444;-75
2022/05/12 07:03:56;;;;;;;4.10;3.70;;;16.80;99.90;;;;;;2615096;54;20424;-76
2022/05/12 07:28:07;;;;;;;8.27;5.17;;;17.90;99.90;;;;;;2614967;54;20424;-75
2022/05/12 07:33:54;;;;;;;14.50;5.70;;;17.50;97.00;;;;;;2615046;54;20227;-75
2022/05/12 07:58:11;;;;;;;12.23;8.63;;;18.70;90.70;;;;;;2613181;54;20409;-76
2022/05/12 08:03:59;;;;;;;6.20;5.07;;;19.10;82.90;;;;;;2613646;54;20432;-76
2022/05/12 08:06:43;;;;;;;7.67;6.90;;;18.90;58.40;;;;;;2613218;54;21093;-76
2022/05/12 08:09:10;;;;;;;8.00;7.37;;;18.20;72.80;;;;;;2613260;54;20197;-76
2022/05/12 08:33:13;;;;;;;10.03;7.50;;;19.70;50.20;;;;;;2613658;54;20494;-76
2022/05/12 08:39:18;;;;;;;8.53;7.73;;;19.60;43.10;;;;;;2615278;54;20411;-76
2022/05/12 08:45:25;;;;;;;7.80;7.03;;;18.80;53.80;;;;;;2615221;54;20173;-75
2022/05/12 08:51:34;;;;;;;13.33;8.00;;;18.60;52.00;;;;;;2615471;54;20164;-75
2022/05/12 09:08:42;;;;;;;12.40;8.30;;;18.10;55.50;;;;;;2615807;54;20415;-75
2022/05/12 09:15:09;;;;;;;7.80;7.20;;;17.40;59.60;;;;;;2615115;54;20465;-75
2022/05/12 09:24:38;;;;;;;7.67;7.00;;;19.50;38.60;;;;;;2616249;31;21003;-74
2022/05/12 09:30:35;;;;;;;8.40;7.70;;;18.90;38.20;;;;;;2614152;47;21001;-75
2022/05/12 09:36:23;;;;;;;8.60;7.87;;;19.60;30.30;;;;;;2614220;47;20403;-75
2022/05/12 09:42:28;;;;;;;8.13;6.53;;;20.90;22.70;;;;;;2615199;54;20196;-75
2022/05/12 09:59:14;;;;;;;12.60;7.10;;;19.50;17.20;;;;;;2615855;54;20535;-75
2022/05/12 10:19:22;;;;;;;8.80;7.83;;;17.70;28.70;;;;;;2616179;39;20884;-75
2022/05/12 10:28:52;;;;;;;10.47;8.77;;;19.40;18.20;;;;;;2615941;39;20776;-75
2022/05/12 10:53:02;;;;;;;6.90;5.47;;;18.60;12.20;;;;;;2615539;54;21005;-75
2022/05/12 11:02:43;;;;;;;6.67;5.63;;;20.60;2.50;;;;;;2615710;54;20437;-75
2022/05/12 11:08:55;;;;;;;6.27;5.70;;;21.20;1.00;;;;;;2615255;54;20403;-74
2022/05/12 11:36:40;;;;;;;4.30;4.00;;;21.80;1.00;;;;;;2615548;54;20450;-76
2022/05/12 12:07:30;;;;;;;4.90;4.50;;;20.20;1.00;;;;;;2612278;54;20978;-75
2022/05/12 12:17:25;;;;;;;5.00;4.40;;;21.60;1.00;;;;;;2613013;54;20440;-75
2022/05/12 12:23:34;;;;;;;5.90;3.80;;;21.60;1.00;;;;;;2612405;54;20418;-75
2022/05/12 12:29:49;;;;;;;5.10;4.70;;;21.60;1.00;;;;;;2612215;54;20413;-75
2022/05/12 13:08:28;;;;;;;12.53;6.13;;;21.80;1.00;;;;;;2611116;54;20408;-74
2022/05/12 13:17:59;;;;;;;5.33;4.73;;;21.50;1.00;;;;;;2612200;54;20640;-75
2022/05/12 13:27:38;;;;;;;4.30;4.00;;;21.80;1.00;;;;;;2613651;47;20519;-75
2022/05/12 13:37:53;;;;;;;5.70;4.90;;;22.10;1.00;;;;;;2614734;39;20524;-75
2022/05/12 14:02:38;;;;;;;6.43;5.80;;;21.30;1.00;;;;;;2615845;54;20443;-75
2022/05/12 14:08:44;;;;;;;7.80;5.87;;;21.10;1.00;;;;;;2615780;54;21090;-75
2022/05/12 14:21:19;;;;;;;5.67;5.27;;;21.00;1.00;;;;;;2615515;54;20999;-75
2022/05/12 14:27:26;;;;;;;5.40;5.00;;;20.90;1.00;;;;;;2616905;54;20580;-74
2022/05/12 14:33:33;;;;;;;5.97;5.57;;;21.30;1.00;;;;;;2617913;39;20836;-75
2022/05/12 14:39:40;;;;;;;5.60;4.60;;;20.90;1.00;;;;;;2617080;46;20446;-75
2022/05/12 14:45:48;;;;;;;6.73;4.70;;;20.80;1.00;;;;;;2615722;54;20999;-76
2022/05/12 14:51:55;;;;;;;5.43;4.87;;;20.80;1.00;;;;;;2614193;54;20402;-76
2022/05/12 14:58:03;;;;;;;5.77;5.20;;;20.40;1.00;;;;;;2614052;54;20424;-76
2022/05/12 15:04:10;;;;;;;5.57;5.00;;;20.60;1.00;;;;;;2613494;54;20449;-75
2022/05/12 15:10:18;;;;;;;7.00;6.00;;;20.50;1.00;;;;;;2616895;54;20417;-75
2022/05/12 15:16:28;;;;;;;7.47;5.50;;;20.30;1.00;;;;;;2616303;54;20384;-75
2022/05/12 15:22:36;;;;;;;5.97;5.47;;;21.50;1.00;;;;;;2614825;54;20941;-77
2022/05/12 15:28:44;;;;;;;6.70;5.60;;;21.20;1.00;;;;;;2615646;54;20411;-76
2022/05/12 15:34:51;;;;;;;5.80;5.30;;;20.80;1.00;;;;;;2614538;46;20464;-76
2022/05/12 15:40:58;;;;;;;8.13;5.97;;;20.50;1.00;;;;;;2617500;31;20882;-75
2022/05/12 16:05:46;;;;;;;6.20;5.37;;;20.50;1.00;;;;;;2614881;54;20510;-75
2022/05/12 16:18:19;;;;;;;6.50;5.90;;;20.50;1.00;;;;;;2615246;54;20405;-75
2022/05/12 16:24:26;;;;;;;8.50;6.43;;;20.40;1.00;;;;;;2615098;54;20429;-75
2022/05/12 16:30:33;;;;;;;5.50;5.00;;;20.30;1.00;;;;;;2615878;54;20175;-76
2022/05/12 16:36:41;;;;;;;5.63;4.90;;;20.10;1.00;;;;;;2616161;54;20457;-75
2022/05/12 16:42:49;;;;;;;7.90;5.07;;;20.30;1.00;;;;;;2617216;54;20440;-74
2022/05/12 16:48:56;;;;;;;9.73;5.60;;;20.50;1.00;;;;;;2617658;39;20759;-76
2022/05/12 16:55:03;;;;;;;6.47;5.23;;;20.40;1.00;;;;;;2617585;54;20148;-75
2022/05/12 17:01:09;;;;;;;9.90;5.17;;;20.30;1.00;;;;;;2616545;54;20926;-75
2022/05/12 17:07:18;;;;;;;8.60;5.63;;;20.30;1.00;;;;;;2617072;54;20412;-75
2022/05/12 17:13:25;;;;;;;8.00;5.77;;;19.80;1.00;;;;;;2617507;54;20412;-75
2022/05/12 17:19:33;;;;;;;9.13;5.80;;;19.90;1.00;;;;;;2617440;54;20164;-75
2022/05/12 17:25:40;;;;;;;7.63;5.90;;;19.90;1.00;;;;;;2617948;54;20460;-75
2022/05/12 17:31:47;;;;;;;5.80;5.20;;;20.00;1.00;;;;;;2617502;54;20986;-75
2022/05/12 17:37:55;;;;;;;6.37;5.50;;;19.70;1.00;;;;;;2617299;54;20864;-76
2022/05/12 17:44:04;;;;;;;5.73;4.87;;;19.60;1.00;;;;;;2617315;54;20393;-75
2022/05/12 17:50:12;;;;;;;7.50;4.73;;;19.70;1.00;;;;;;2617325;54;20405;-75
2022/05/12 17:56:19;;;;;;;8.40;5.10;;;19.70;1.00;;;;;;2618179;39;20780;-75
2022/05/12 18:05:49;;;;;;;6.00;5.40;;;19.60;1.00;;;;;;2617338;54;20415;-74
2022/05/12 18:11:43;;;;;;;10.57;6.50;;;19.50;1.00;;;;;;2616378;47;20979;-75
2022/05/12 18:17:32;;;;;;;5.43;4.83;;;19.20;1.00;;;;;;2618031;54;20440;-76
2022/05/12 18:23:20;;;;;;;8.13;6.10;;;18.90;1.00;;;;;;2617669;39;21102;-76
2022/05/12 18:29:09;;;;;;;6.37;5.17;;;18.80;1.00;;;;;;2617519;54;20173;-75
2022/05/12 18:34:57;;;;;;;5.97;4.87;;;18.70;1.00;;;;;;2616545;47;20379;-75
2022/05/12 18:40:47;;;;;;;7.87;5.70;;;18.50;1.00;;;;;;2617990;31;20649;-75
2022/05/12 18:46:37;;;;;;;6.73;4.77;;;18.50;1.00;;;;;;2616799;46;20404;-76
2022/05/12 18:52:25;;;;;;;6.10;5.50;;;18.40;1.00;;;;;;2617070;46;20400;-76
2022/05/12 18:58:14;;;;;;;5.77;5.27;;;18.30;1.00;;;;;;2617521;54;20156;-75
2022/05/12 19:04:42;;;;;;;6.20;5.20;;;18.20;1.00;;;;;;2615510;46;20460;-75
2022/05/12 19:10:30;;;;;;;7.33;5.50;;;18.00;1.00;;;;;;2616376;46;20424;-75
2022/05/12 19:16:17;;;;;;;7.60;5.33;;;17.80;1.00;;;;;;2615710;54;20411;-75
2022/05/12 19:22:05;;;;;;;5.03;4.60;;;17.70;1.00;;;;;;2615354;54;20405;-76
2022/05/12 19:27:53;;;;;;;5.50;5.00;;;17.60;1.00;;;;;;2616140;54;20154;-76
2022/05/12 19:33:41;;;;;;;5.90;5.30;;;17.50;1.00;;;;;;2615567;47;20958;-75
2022/05/12 19:39:29;;;;;;;8.10;5.77;;;17.20;1.00;;;;;;2617509;54;20430;-75
2022/05/12 19:45:17;;;;;;;6.70;6.00;;;17.20;1.00;;;;;;2617214;54;20523;-76
2022/05/12 19:51:05;;;;;;;7.30;5.73;;;17.00;2.20;;;;;;2616702;54;20409;-76
2022/05/12 19:56:53;;;;;;;9.80;5.17;;;16.60;5.70;;;;;;2615640;47;20183;-75
2022/05/12 20:06:22;;;;;;;7.97;5.50;;;16.10;9.60;;;;;;2616784;54;20419;-76
2022/05/12 20:12:29;;;;;;;5.70;5.20;;;15.90;13.40;;;;;;2616938;54;20155;-76
2022/05/12 20:18:36;;;;;;;10.73;5.50;;;15.70;17.00;;;;;;2617137;54;20415;-76
2022/05/12 20:24:43;;;;;;;6.70;6.03;;;15.70;22.40;;;;;;2616977;54;20439;-75
2022/05/12 20:30:49;;;;;;;7.70;5.50;;;15.50;22.80;;;;;;2616870;54;20181;-75
2022/05/12 20:36:56;;;;;;;10.53;5.83;;;15.20;23.70;;;;;;2617132;54;20682;-75
2022/05/12 20:43:04;;;;;;;6.87;5.33;;;15.10;26.40;;;;;;2617136;54;20158;-75
2022/05/12 20:49:12;;;;;;;8.07;5.33;;;15.00;30.60;;;;;;2616913;54;20407;-75
2022/05/12 20:55:20;;;;;;;8.90;5.57;;;14.70;32.40;;;;;;2616738;54;20447;-75
2022/05/12 21:01:29;;;;;;;6.63;4.47;;;14.60;33.10;;;;;;2617311;54;20436;-74
2022/05/12 21:07:36;;;;;;;7.40;5.30;;;14.60;36.10;;;;;;2616422;54;20440;-74
2022/05/12 21:13:43;;;;;;;6.80;5.17;;;14.60;38.00;;;;;;2616807;54;20157;-75
2022/05/12 21:19:50;;;;;;;6.10;4.70;;;14.50;40.20;;;;;;2616451;54;20400;-74
2022/05/12 21:25:57;;;;;;;5.80;5.30;;;14.60;32.40;;;;;;2615439;54;20483;-75
2022/05/12 21:32:05;;;;;;;8.83;5.77;;;14.80;33.80;;;;;;2616300;54;20391;-75
2022/05/12 21:38:13;;;;;;;7.80;5.63;;;14.80;34.70;;;;;;2616264;54;20474;-75
2022/05/12 21:44:20;;;;;;;10.23;5.83;;;14.60;37.80;;;;;;2615975;54;20394;-75
2022/05/12 21:50:26;;;;;;;13.47;6.93;;;14.70;37.90;;;;;;2616199;54;20158;-74
2022/05/12 21:56:33;;;;;;;11.80;6.30;;;14.80;37.30;;;;;;2616343;54;20451;-75
2022/05/12 22:06:23;;;;;;;11.03;5.83;;;14.70;40.70;;;;;;2616740;54;20506;-76
2022/05/12 22:12:30;;;;;;;5.97;4.50;;;14.70;37.70;;;;;;2617877;54;20395;-75
2022/05/12 22:18:39;;;;;;;7.97;4.97;;;14.70;36.30;;;;;;2616894;54;20411;-75
2022/05/12 22:24:46;;;;;;;4.93;3.80;;;14.80;34.70;;;;;;2617578;54;20402;-76
2022/05/12 22:30:52;;;;;;;5.90;4.60;;;14.60;36.60;;;;;;2617307;54;20438;-76
2022/05/12 22:36:59;;;;;;;5.30;3.80;;;14.60;37.70;;;;;;2616632;54;20158;-75
2022/05/12 22:43:06;;;;;;;5.00;4.50;;;14.30;44.90;;;;;;2617733;54;20145;-75
2022/05/12 22:49:13;;;;;;;5.40;3.80;;;14.20;46.50;;;;;;2616479;54;20426;-75
2022/05/12 22:55:21;;;;;;;9.20;5.50;;;14.00;48.70;;;;;;2616776;54;20374;-75
2022/05/12 23:01:28;;;;;;;6.07;3.70;;;14.00;52.60;;;;;;2616729;54;20422;-75
2022/05/12 23:07:35;;;;;;;5.43;3.60;;;14.10;51.40;;;;;;2616847;54;20518;-76
2022/05/12 23:13:43;;;;;;;6.03;3.90;;;14.00;48.40;;;;;;2616864;54;20150;-74
2022/05/12 23:26:14;;;;;;;3.53;3.27;;;13.50;54.60;;;;;;2618040;39;20834;-75
2022/05/12 23:32:21;;;;;;;5.47;3.67;;;13.50;59.10;;;;;;2616998;54;20177;-74
2022/05/12 23:38:27;;;;;;;3.53;3.23;;;13.30;66.50;;;;;;2615743;54;20241;-75
2022/05/12 23:44:34;;;;;;;9.73;4.10;;;13.30;71.00;;;;;;2615912;54;20663;-77
2022/05/12 23:50:41;;;;;;;5.73;3.37;;;12.90;77.50;;;;;;2615640;54;20443;-75
2022/05/12 23:56:46;;;;;;;3.03;2.83;;;13.10;78.30;;;;;;2615802;54;21024;-75
